Venia, Virginia
Current Conditions -  °F | °C
As of 10:55 PM on Sunday 23 Nov 2014 (Local Time) from KJFZ Reporting Station
Scattered Clouds Scattered Clouds  
Wind Chill: 58°   Ceiling: Unl
Heat Index: 58°   Visibility: 10mi
Dew Point: 50°   Wind: 15mph
Humidity: 77%   Direction: 150°SSE
Pressure: 29.61"   Gusts: 25mph
Location:  37.0328°N, 82.0042°W
Report Text: KJFZ 240355Z AUTO 15013G22KT 120V190 10SM SCT026 SCT031 SCT055 14/10 A2961 RMK AO2 T01420102
Loading
Personal Weather Stations






























Interactive Weather Map New forecast layout! Learn more

10-Day Weather Forecast

Advertisements
Track Severe Weather on mobile